Time;durP1;ratioP1;P1;durP2;ratioP2;P2;SDS_P1;SDS_P2;PMS_P1;PMS_P2;Temp;Humidity;BMP_temperature;BMP_pressure;BME280_temperature;BME280_humidity;BME280_pressure;Samples;Min_cycle;Max_cycle;Signal;HPM_P1;HPM_P2
2023/10/31 06:40:04;;;;;;;;;;;;;;;10.18;100;99909.98;;;;-74
2023/10/31 06:45:13;;;;;;;;;;;;;;;10.19;100;99911.98;;;;-75
2023/10/31 06:50:28;;;;;;;;;;;;;;;10.22;100;99915.67;;;;-74
2023/10/31 06:55:30;;;;;;;;;;;;;;;10.23;100;99924.91;;;;-73
2023/10/31 07:10:04;;;;;;;;;;;;;;;10.27;100;99947.19;;;;-74
2023/10/31 07:15:05;;;;;;;;;;;;;;;10.23;100;99955.75;;;;-75
2023/10/31 07:16:37;;;;;;;9.3;1.7;;;;;;;;;;;;;-74
2023/10/31 07:20:04;;;;;;;;;;;;;;;10.21;100;99966.59;;;;-74
2023/10/31 07:25:09;;;;;;;;;;;;;;;10.21;100;99976.16;;;;-75
2023/10/31 07:30:05;;;;;;;;;;;;;;;10.21;100;99988.72;;;;-75
2023/10/31 07:35:04;;;;;;;;;;;;;;;10.14;100;99996.22;;;;-74
2023/10/31 07:40:04;;;;;;;;;;;;;;;10.05;100;99994.36;;;;-73
2023/10/31 07:45:04;;;;;;;;;;;;;;;9.94;100;99997.16;;;;-76
2023/10/31 07:46:38;;;;;;;6.4;1.6;;;;;;;;;;;;;-74
2023/10/31 07:50:04;;;;;;;;;;;;;;;9.9;100;100001.9;;;;-74
2023/10/31 07:55:04;;;;;;;;;;;;;;;9.95;100;100009.4;;;;-73
2023/10/31 08:00:04;;;;;;;;;;;;;;;9.99;100;100015.3;;;;-75
2023/10/31 08:05:05;;;;;;;;;;;;;;;10.07;100;100017.4;;;;-74
2023/10/31 08:10:04;;;;;;;;;;;;;;;10.28;100;100022.9;;;;-74
2023/10/31 08:15:05;;;;;;;;;;;;;;;10.41;100;100026.6;;;;-74
2023/10/31 08:16:39;;;;;;;6.3;1.2;;;;;;;;;;;;;-74
2023/10/31 08:20:04;;;;;;;;;;;;;;;10.42;100;100030.1;;;;-75
2023/10/31 08:25:04;;;;;;;;;;;;;;;10.46;100;100018.9;;;;-74
2023/10/31 08:30:04;;;;;;;;;;;;;;;10.9;100;100037.6;;;;-74
2023/10/31 08:35:06;;;;;;;;;;;;;;;11.46;100;100034.3;;;;-73
2023/10/31 08:40:05;;;;;;;;;;;;;;;11.87;100;100042.2;;;;-73
2023/10/31 08:45:04;;;;;;;;;;;;;;;12.1;100;100055.8;;;;-74
2023/10/31 08:46:41;;;;;;;8.8;1.4;;;;;;;;;;;;;-75
2023/10/31 08:50:04;;;;;;;;;;;;;;;12.42;100;100062.8;;;;-75
2023/10/31 08:55:04;;;;;;;;;;;;;;;12.37;100;100070;;;;-75
2023/10/31 09:00:04;;;;;;;;;;;;;;;12.33;100;100076.9;;;;-77
2023/10/31 09:43:03;;;;;;;;;;;;;;;13.01;100;100125.7;;;;-74
2023/10/31 10:02:09;;;;;;;;;;;;;;;;;;;;;
2023/10/31 10:18:01;;;;;;;5.5;0.8;;;;;;;;;;;;;-75
2023/10/31 10:34:43;;;;;;;;;;;;;;;;;;;;;
2023/10/31 10:56:37;;;;;;;;;;;;;;;12.77;100;100201.7;;;;-74
2023/10/31 11:01:38;;;;;;;;;;;;;;;12.79;100;100197;;;;-77
2023/10/31 11:31:37;;;;;;;;;;;;;;;13.22;100;100197.4;;;;-75
2023/10/31 11:58:44;;;;;;;;;;;;;;;13.37;100;100221.9;;;;-75
2023/10/31 12:03:47;;;;;;;;;;;;;;;13.61;100;100222.8;;;;-75
2023/10/31 12:08:49;;;;;;;;;;;;;;;13.74;99.75098;100224;;;;-74
2023/10/31 12:13:40;;;;;;;;;;;;;;;13.74;97.53418;100226;;;;-77
2023/10/31 12:16:55;;;;;;;4.2;0.6;;;;;;;;;;;;;-72
2023/10/31 12:18:42;;;;;;;;;;;;;;;13.76;97.46973;100225.6;;;;-73
2023/10/31 12:23:40;;;;;;;;;;;;;;;13.84;94.13672;100227.9;;;;-73
2023/10/31 12:28:41;;;;;;;;;;;;;;;14.06;95.75098;100228.7;;;;-72
2023/10/31 12:33:39;;;;;;;;;;;;;;;14.1;91.55957;100235.9;;;;-72
2023/10/31 12:38:41;;;;;;;;;;;;;;;14.08;90.49707;100238.1;;;;-72
2023/10/31 12:43:39;;;;;;;;;;;;;;;14.13;91.62012;100232.4;;;;-73
2023/10/31 12:46:55;;;;;;;2.4;0.5;;;;;;;;;;;;;-72
2023/10/31 12:48:41;;;;;;;;;;;;;;;13.99;89.79102;100241.4;;;;-73
2023/10/31 12:53:39;;;;;;;;;;;;;;;13.95;92.46094;100239.1;;;;-73
2023/10/31 12:58:39;;;;;;;;;;;;;;;13.95;93.93848;100238;;;;-73
2023/10/31 13:03:53;;;;;;;;;;;;;;;13.97;93.29785;100241.2;;;;-72
2023/10/31 13:08:41;;;;;;;;;;;;;;;13.93;88.94238;100240.8;;;;-73
2023/10/31 13:13:39;;;;;;;;;;;;;;;13.79;89.82617;100243.8;;;;-72
2023/10/31 13:16:57;;;;;;;4;0.5;;;;;;;;;;;;;-74
2023/10/31 13:18:39;;;;;;;;;;;;;;;13.77;89.97852;100249.5;;;;-72
2023/10/31 13:23:39;;;;;;;;;;;;;;;13.8;91.0957;100245.4;;;;-73
2023/10/31 13:28:39;;;;;;;;;;;;;;;13.84;91.0957;100245.9;;;;-73
2023/10/31 13:33:39;;;;;;;;;;;;;;;13.65;88.6875;100247.5;;;;-72
2023/10/31 13:38:40;;;;;;;;;;;;;;;13.54;90.36523;100246.8;;;;-73
2023/10/31 13:43:39;;;;;;;;;;;;;;;13.44;93.41016;100251.2;;;;-73
2023/10/31 13:46:59;;;;;;;2.7;0.5;;;;;;;;;;;;;-71
2023/10/31 13:48:39;;;;;;;;;;;;;;;13.46;94.73438;100248.7;;;;-72
2023/10/31 13:53:41;;;;;;;;;;;;;;;13.4;94.5293;100253.8;;;;-73
2023/10/31 13:58:39;;;;;;;;;;;;;;;13.27;94.91504;100260.9;;;;-74
2023/10/31 14:03:40;;;;;;;;;;;;;;;13.16;95.95313;100263.4;;;;-76
2023/10/31 14:08:39;;;;;;;;;;;;;;;13.11;100;100273.2;;;;-73
2023/10/31 14:13:41;;;;;;;;;;;;;;;12.87;100;100273.5;;;;-72
2023/10/31 14:17:04;;;;;;;5.4;1.6;;;;;;;;;;;;;-73
2023/10/31 14:18:39;;;;;;;;;;;;;;;12.69;100;100275.7;;;;-73
2023/10/31 14:23:39;;;;;;;;;;;;;;;12.56;100;100280.9;;;;-74
2023/10/31 14:28:40;;;;;;;;;;;;;;;12.29;100;100285.4;;;;-73
2023/10/31 14:33:39;;;;;;;;;;;;;;;12.01;100;100289.8;;;;-75
2023/10/31 14:38:39;;;;;;;;;;;;;;;11.83;100;100302.5;;;;-75
2023/10/31 14:43:39;;;;;;;;;;;;;;;11.65;100;100307.3;;;;-74
2023/10/31 14:47:03;;;;;;;8.5;3.2;;;;;;;;;;;;;-76
2023/10/31 14:48:41;;;;;;;;;;;;;;;11.46;100;100329.2;;;;-74
2023/10/31 14:53:39;;;;;;;;;;;;;;;11.28;100;100358.7;;;;-77
2023/10/31 14:59:12;;;;;;;;;;;;;;;10.66;100;100353.1;;;;-77
2023/10/31 17:18:16;;;;;;;;;;;;;;;9.35;100;100331.1;;;;-74
2023/10/31 17:38:22;;;;;;;;;;;;;;;9.64;100;100414.8;;;;-74
2023/10/31 17:42:59;;;;;;;;;;;;;;;9.64;100;100409.9;;;;-76
2023/10/31 21:28:20;;;;;;;;;;;;;;;;;;;;;
2023/10/31 21:33:11;;;;;;;;;;;;;;;;;;;;;
2023/10/31 21:38:16;;;;;;;;;;;;;;;;;;;;;
2023/10/31 21:43:11;;;;;;;;;;;;;;;;;;;;;
2023/10/31 21:47:21;;;;;;;;;;;;;;;;;;;;;
2023/10/31 21:48:13;;;;;;;;;;;;;;;;;;;;;
2023/10/31 21:53:11;;;;;;;;;;;;;;;;;;;;;
2023/10/31 22:03:23;;;;;;;;;;;;;;;;;;;;;
2023/10/31 22:08:37;;;;;;;;;;;;;;;;;;;;;
2023/10/31 22:13:25;;;;;;;;;;;;;;;;;;;;;
2023/10/31 22:23:11;;;;;;;;;;;;;;;;;;;;;
2023/10/31 22:28:11;;;;;;;;;;;;;;;;;;;;;
2023/10/31 22:33:11;;;;;;;;;;;;;;;;;;;;;
2023/10/31 22:38:11;;;;;;;;;;;;;;;;;;;;;
2023/10/31 22:43:11;;;;;;;;;;;;;;;;;;;;;
2023/10/31 22:47:19;;;;;;;;;;;;;;;;;;;;;
2023/10/31 22:48:11;;;;;;;;;;;;;;;;;;;;;
2023/10/31 22:53:11;;;;;;;;;;;;;;;;;;;;;
2023/10/31 22:58:11;;;;;;;;;;;;;;;;;;;;;
2023/10/31 23:03:12;;;;;;;;;;;;;;;;;;;;;
2023/10/31 23:08:11;;;;;;;;;;;;;;;;;;;;;
2023/10/31 23:13:13;;;;;;;;;;;;;;;;;;;;;
2023/10/31 23:17:22;;;;;;;;;;;;;;;;;;;;;
2023/10/31 23:18:11;;;;;;;;;;;;;;;;;;;;;
2023/10/31 23:23:11;;;;;;;;;;;;;;;;;;;;;
2023/10/31 23:28:11;;;;;;;;;;;;;;;;;;;;;
2023/10/31 23:33:11;;;;;;;;;;;;;;;;;;;;;
2023/10/31 23:38:11;;;;;;;;;;;;;;;;;;;;;
2023/10/31 23:43:11;;;;;;;;;;;;;;;;;;;;;
2023/10/31 23:47:23;;;;;;;;;;;;;;;;;;;;;
2023/10/31 23:48:11;;;;;;;;;;;;;;;;;;;;;
2023/10/31 23:53:11;;;;;;;;;;;;;;;;;;;;;
2023/10/31 23:58:14;;;;;;;;;;;;;;;;;;;;;
